sensor_id;sensor_type;location;lat;lon;timestamp;pressure;altitude;pressure_sealevel;temperature;humidity
72855;BME280;60991;51.278;22.550;2023-02-01T00:00:56;98029.22;;;1.37;86.17
72855;BME280;60991;51.278;22.550;2023-02-01T00:02:26;98045.72;;;1.38;85.61
72855;BME280;60991;51.278;22.550;2023-02-01T00:03:56;98028.41;;;1.37;85.71
72855;BME280;60991;51.278;22.550;2023-02-01T00:05:26;98026.00;;;1.35;86.32
72855;BME280;60991;51.278;22.550;2023-02-01T00:06:57;98015.13;;;1.38;85.86
72855;BME280;60991;51.278;22.550;2023-02-01T00:08:27;98010.94;;;1.31;85.99
72855;BME280;60991;51.278;22.550;2023-02-01T00:09:58;98006.53;;;1.31;86.30
72855;BME280;60991;51.278;22.550;2023-02-01T00:11:28;98022.66;;;1.28;86.18
72855;BME280;60991;51.278;22.550;2023-02-01T00:12:58;98017.63;;;1.27;86.61
72855;BME280;60991;51.278;22.550;2023-02-01T00:14:29;98010.44;;;1.22;86.48
72855;BME280;60991;51.278;22.550;2023-02-01T00:16:20;98021.69;;;1.23;87.26
72855;BME280;60991;51.278;22.550;2023-02-01T00:17:54;98009.22;;;1.25;86.78
72855;BME280;60991;51.278;22.550;2023-02-01T00:19:24;98006.59;;;1.25;86.63
72855;BME280;60991;51.278;22.550;2023-02-01T00:20:55;98004.78;;;1.25;86.76
72855;BME280;60991;51.278;22.550;2023-02-01T00:22:25;98006.59;;;1.25;87.03
72855;BME280;60991;51.278;22.550;2023-02-01T00:23:55;98007.41;;;1.25;86.58
72855;BME280;60991;51.278;22.550;2023-02-01T00:25:26;98001.53;;;1.30;86.56
72855;BME280;60991;51.278;22.550;2023-02-01T00:26:56;97989.31;;;1.24;86.65
72855;BME280;60991;51.278;22.550;2023-02-01T00:28:26;97983.47;;;1.22;86.36
72855;BME280;60991;51.278;22.550;2023-02-01T00:29:56;97985.88;;;1.23;86.62
72855;BME280;60991;51.278;22.550;2023-02-01T00:31:26;97984.72;;;1.19;87.11
72855;BME280;60991;51.278;22.550;2023-02-01T00:32:57;97990.53;;;1.21;86.84
72855;BME280;60991;51.278;22.550;2023-02-01T00:34:27;97985.31;;;1.21;86.29
72855;BME280;60991;51.278;22.550;2023-02-01T00:36:02;97974.84;;;1.21;86.79
72855;BME280;60991;51.278;22.550;2023-02-01T00:37:33;97967.00;;;1.21;86.60
72855;BME280;60991;51.278;22.550;2023-02-01T00:39:03;97969.03;;;1.19;87.09
72855;BME280;60991;51.278;22.550;2023-02-01T00:40:33;97966.38;;;1.26;87.01
72855;BME280;60991;51.278;22.550;2023-02-01T00:42:04;97970.59;;;1.27;86.19
72855;BME280;60991;51.278;22.550;2023-02-01T00:43:34;97967.59;;;1.23;86.83
72855;BME280;60991;51.278;22.550;2023-02-01T00:45:05;97963.75;;;1.26;86.61
72855;BME280;60991;51.278;22.550;2023-02-01T00:46:35;97962.34;;;1.30;86.81
72855;BME280;60991;51.278;22.550;2023-02-01T00:48:05;97957.44;;;1.33;86.86
72855;BME280;60991;51.278;22.550;2023-02-01T00:49:36;97957.03;;;1.36;86.71
72855;BME280;60991;51.278;22.550;2023-02-01T00:51:09;97951.38;;;1.39;86.01
72855;BME280;60991;51.278;22.550;2023-02-01T00:52:40;97942.56;;;1.34;86.65
72855;BME280;60991;51.278;22.550;2023-02-01T00:54:10;97938.69;;;1.43;85.79
72855;BME280;60991;51.278;22.550;2023-02-01T00:55:40;97944.13;;;1.42;86.04
72855;BME280;60991;51.278;22.550;2023-02-01T00:57:14;97937.88;;;1.43;86.60
72855;BME280;60991;51.278;22.550;2023-02-01T00:58:44;97945.53;;;1.44;85.82
72855;BME280;60991;51.278;22.550;2023-02-01T01:00:15;97939.06;;;1.47;86.37
72855;BME280;60991;51.278;22.550;2023-02-01T01:01:45;97934.03;;;1.45;86.20
72855;BME280;60991;51.278;22.550;2023-02-01T01:03:15;97937.47;;;1.46;85.89
72855;BME280;60991;51.278;22.550;2023-02-01T01:04:45;97933.25;;;1.45;86.41
72855;BME280;60991;51.278;22.550;2023-02-01T01:06:19;97927.00;;;1.46;86.76
72855;BME280;60991;51.278;22.550;2023-02-01T01:07:50;97922.00;;;1.44;85.89
72855;BME280;60991;51.278;22.550;2023-02-01T01:09:20;97912.34;;;1.45;86.73
72855;BME280;60991;51.278;22.550;2023-02-01T01:10:50;97927.59;;;1.48;86.31
72855;BME280;60991;51.278;22.550;2023-02-01T01:12:20;97920.31;;;1.50;86.40
72855;BME280;60991;51.278;22.550;2023-02-01T01:13:52;97913.72;;;1.47;86.60
72855;BME280;60991;51.278;22.550;2023-02-01T01:15:23;97907.03;;;1.51;86.65
72855;BME280;60991;51.278;22.550;2023-02-01T01:16:53;97912.03;;;1.53;86.02
72855;BME280;60991;51.278;22.550;2023-02-01T01:18:23;97908.84;;;1.51;86.25
72855;BME280;60991;51.278;22.550;2023-02-01T01:19:53;97907.03;;;1.51;86.36
72855;BME280;60991;51.278;22.550;2023-02-01T01:21:24;97915.44;;;1.53;86.54
72855;BME280;60991;51.278;22.550;2023-02-01T01:22:54;97906.59;;;1.54;86.23
72855;BME280;60991;51.278;22.550;2023-02-01T01:24:24;97907.41;;;1.55;86.09
72855;BME280;60991;51.278;22.550;2023-02-01T01:25:55;97903.97;;;1.54;86.81
72855;BME280;60991;51.278;22.550;2023-02-01T01:27:25;97905.16;;;1.58;85.77
72855;BME280;60991;51.278;22.550;2023-02-01T01:28:56;97915.41;;;1.60;85.94
72855;BME280;60991;51.278;22.550;2023-02-01T01:30:26;97910.00;;;1.55;85.83
72855;BME280;60991;51.278;22.550;2023-02-01T01:31:57;97900.56;;;1.54;86.30
72855;BME280;60991;51.278;22.550;2023-02-01T01:33:27;97899.38;;;1.50;86.38
72855;BME280;60991;51.278;22.550;2023-02-01T01:34:57;97903.38;;;1.52;86.53
72855;BME280;60991;51.278;22.550;2023-02-01T01:36:28;97902.16;;;1.55;86.99
72855;BME280;60991;51.278;22.550;2023-02-01T01:37:59;97907.41;;;1.55;86.71
72855;BME280;60991;51.278;22.550;2023-02-01T01:39:30;97904.56;;;1.56;86.70
72855;BME280;60991;51.278;22.550;2023-02-01T01:41:00;97899.34;;;1.56;86.88
72855;BME280;60991;51.278;22.550;2023-02-01T01:42:37;97900.94;;;1.57;86.46
72855;BME280;60991;51.278;22.550;2023-02-01T01:46:18;97911.56;;;1.62;86.01
72855;BME280;60991;51.278;22.550;2023-02-01T01:47:53;97903.50;;;1.64;85.51
72855;BME280;60991;51.278;22.550;2023-02-01T01:49:25;97902.53;;;1.58;85.80
72855;BME280;60991;51.278;22.550;2023-02-01T01:51:00;97907.13;;;1.63;85.63
72855;BME280;60991;51.278;22.550;2023-02-01T01:52:33;97906.53;;;1.61;86.42
72855;BME280;60991;51.278;22.550;2023-02-01T01:54:12;97907.03;;;1.69;85.99
72855;BME280;60991;51.278;22.550;2023-02-01T01:55:45;97900.22;;;1.68;86.43
72855;BME280;60991;51.278;22.550;2023-02-01T01:57:25;97910.25;;;1.71;85.90
72855;BME280;60991;51.278;22.550;2023-02-01T01:58:57;97902.97;;;1.73;86.02
72855;BME280;60991;51.278;22.550;2023-02-01T02:00:28;97908.81;;;1.76;86.43
72855;BME280;60991;51.278;22.550;2023-02-01T02:01:58;97905.75;;;1.79;86.41
72855;BME280;60991;51.278;22.550;2023-02-01T02:03:38;97901.91;;;1.81;86.16
72855;BME280;60991;51.278;22.550;2023-02-01T02:05:10;97886.13;;;1.88;86.09
72855;BME280;60991;51.278;22.550;2023-02-01T02:06:54;97891.34;;;1.88;86.33
72855;BME280;60991;51.278;22.550;2023-02-01T02:08:26;97894.13;;;1.93;85.71
72855;BME280;60991;51.278;22.550;2023-02-01T02:09:57;97897.47;;;2.00;85.21
72855;BME280;60991;51.278;22.550;2023-02-01T02:11:27;97890.06;;;1.97;85.29
72855;BME280;60991;51.278;22.550;2023-02-01T02:12:57;97893.84;;;2.01;85.82
72855;BME280;60991;51.278;22.550;2023-02-01T02:14:28;97905.31;;;2.00;85.82
72855;BME280;60991;51.278;22.550;2023-02-01T02:18:19;97899.66;;;2.03;85.10
72855;BME280;60991;51.278;22.550;2023-02-01T02:20:15;97901.09;;;2.17;84.59
72855;BME280;60991;51.278;22.550;2023-02-01T02:26:19;97902.41;;;2.08;85.53
72855;BME280;60991;51.278;22.550;2023-02-01T02:32:09;97917.47;;;2.13;85.27
72855;BME280;60991;51.278;22.550;2023-02-01T02:35:30;97915.34;;;2.21;84.90
72855;BME280;60991;51.278;22.550;2023-02-01T02:42:38;97914.16;;;2.35;83.94
72855;BME280;60991;51.278;22.550;2023-02-01T02:44:23;97910.22;;;2.44;83.46
72855;BME280;60991;51.278;22.550;2023-02-01T02:46:25;97917.34;;;2.56;83.13
72855;BME280;60991;51.278;22.550;2023-02-01T02:48:18;97916.72;;;2.72;82.57
72855;BME280;60991;51.278;22.550;2023-02-01T02:50:09;97920.41;;;2.64;82.19
72855;BME280;60991;51.278;22.550;2023-02-01T02:51:50;97925.88;;;2.63;82.88
72855;BME280;60991;51.278;22.550;2023-02-01T02:53:41;97921.78;;;2.55;82.52
72855;BME280;60991;51.278;22.550;2023-02-01T02:55:13;97927.44;;;2.52;82.96
72855;BME280;60991;51.278;22.550;2023-02-01T02:56:43;97934.50;;;2.52;83.02
72855;BME280;60991;51.278;22.550;2023-02-01T02:58:15;97940.41;;;2.47;83.06
72855;BME280;60991;51.278;22.550;2023-02-01T02:59:47;97940.53;;;2.52;82.90
72855;BME280;60991;51.278;22.550;2023-02-01T03:01:18;97952.59;;;2.71;82.14
72855;BME280;60991;51.278;22.550;2023-02-01T03:02:49;97939.34;;;2.66;82.46
72855;BME280;60991;51.278;22.550;2023-02-01T03:04:20;97936.88;;;2.71;82.35
72855;BME280;60991;51.278;22.550;2023-02-01T03:05:50;97941.38;;;2.64;81.70
72855;BME280;60991;51.278;22.550;2023-02-01T03:09:35;97946.84;;;2.63;82.07
72855;BME280;60991;51.278;22.550;2023-02-01T03:11:09;97955.66;;;2.68;81.68
72855;BME280;60991;51.278;22.550;2023-02-01T03:12:40;97966.03;;;2.75;81.89
72855;BME280;60991;51.278;22.550;2023-02-01T03:14:14;97958.47;;;2.67;81.60
72855;BME280;60991;51.278;22.550;2023-02-01T03:15:54;97964.31;;;2.69;82.15
72855;BME280;60991;51.278;22.550;2023-02-01T03:17:33;97973.03;;;2.63;81.77
72855;BME280;60991;51.278;22.550;2023-02-01T03:19:23;97964.38;;;2.62;81.90
72855;BME280;60991;51.278;22.550;2023-02-01T03:20:55;97966.69;;;2.70;81.80
72855;BME280;60991;51.278;22.550;2023-02-01T03:22:31;97963.13;;;2.65;82.42
72855;BME280;60991;51.278;22.550;2023-02-01T03:24:10;97970.78;;;2.66;82.24
72855;BME280;60991;51.278;22.550;2023-02-01T03:25:42;97965.53;;;2.66;82.43
72855;BME280;60991;51.278;22.550;2023-02-01T03:28:53;97972.00;;;2.64;82.88
72855;BME280;60991;51.278;22.550;2023-02-01T03:30:28;97969.91;;;2.72;81.71
72855;BME280;60991;51.278;22.550;2023-02-01T03:31:59;97969.97;;;2.66;82.36
72855;BME280;60991;51.278;22.550;2023-02-01T03:33:30;97980.47;;;2.66;82.84
72855;BME280;60991;51.278;22.550;2023-02-01T03:35:01;97992.81;;;2.77;82.13
72855;BME280;60991;51.278;22.550;2023-02-01T03:36:42;97989.47;;;2.70;82.12
72855;BME280;60991;51.278;22.550;2023-02-01T03:38:23;97988.53;;;2.64;81.58
72855;BME280;60991;51.278;22.550;2023-02-01T03:40:01;97985.84;;;2.71;81.29
72855;BME280;60991;51.278;22.550;2023-02-01T03:41:37;97990.31;;;2.52;82.15
72855;BME280;60991;51.278;22.550;2023-02-01T03:43:14;97988.06;;;2.37;82.03
72855;BME280;60991;51.278;22.550;2023-02-01T03:44:51;97992.78;;;2.29;82.73
72855;BME280;60991;51.278;22.550;2023-02-01T03:46:35;97979.69;;;2.29;82.54
72855;BME280;60991;51.278;22.550;2023-02-01T03:48:09;97982.63;;;2.39;81.85
72855;BME280;60991;51.278;22.550;2023-02-01T03:49:54;97990.97;;;2.29;82.03
72855;BME280;60991;51.278;22.550;2023-02-01T03:51:25;97992.50;;;2.19;83.02
72855;BME280;60991;51.278;22.550;2023-02-01T03:53:01;97994.16;;;2.13;82.49
72855;BME280;60991;51.278;22.550;2023-02-01T03:54:32;98000.72;;;2.04;83.18
72855;BME280;60991;51.278;22.550;2023-02-01T03:56:03;97993.72;;;1.98;83.82
72855;BME280;60991;51.278;22.550;2023-02-01T03:57:39;97990.47;;;2.02;83.52
72855;BME280;60991;51.278;22.550;2023-02-01T03:59:12;97996.50;;;2.03;83.82
72855;BME280;60991;51.278;22.550;2023-02-01T04:00:55;98004.19;;;2.16;84.37
72855;BME280;60991;51.278;22.550;2023-02-01T04:02:25;98000.78;;;2.16;83.92
72855;BME280;60991;51.278;22.550;2023-02-01T04:03:56;97995.03;;;2.25;82.93
72855;BME280;60991;51.278;22.550;2023-02-01T04:05:27;98010.69;;;2.32;83.22
72855;BME280;60991;51.278;22.550;2023-02-01T04:06:57;98002.66;;;2.27;83.17
72855;BME280;60991;51.278;22.550;2023-02-01T04:08:27;98004.69;;;2.25;82.51
72855;BME280;60991;51.278;22.550;2023-02-01T04:09:57;97994.81;;;2.27;82.43
72855;BME280;60991;51.278;22.550;2023-02-01T04:11:28;97991.59;;;2.25;83.13
72855;BME280;60991;51.278;22.550;2023-02-01T04:12:58;97994.81;;;2.27;83.10
72855;BME280;60991;51.278;22.550;2023-02-01T04:14:28;97999.25;;;2.44;82.04
72855;BME280;60991;51.278;22.550;2023-02-01T04:15:58;98000.19;;;2.50;81.78
72855;BME280;60991;51.278;22.550;2023-02-01T04:17:29;97998.97;;;2.53;81.77
72855;BME280;60991;51.278;22.550;2023-02-01T04:18:59;98004.94;;;2.60;81.33
72855;BME280;60991;51.278;22.550;2023-02-01T04:20:29;98001.81;;;2.51;81.47
72855;BME280;60991;51.278;22.550;2023-02-01T04:22:00;98005.06;;;2.47;82.35
72855;BME280;60991;51.278;22.550;2023-02-01T04:23:30;97992.28;;;2.38;81.91
72855;BME280;60991;51.278;22.550;2023-02-01T04:25:00;97994.69;;;2.40;82.09
72855;BME280;60991;51.278;22.550;2023-02-01T04:26:31;97998.09;;;2.40;81.75
72855;BME280;60991;51.278;22.550;2023-02-01T04:28:01;98001.59;;;2.34;82.52
72855;BME280;60991;51.278;22.550;2023-02-01T04:29:31;98000.78;;;2.34;82.52
72855;BME280;60991;51.278;22.550;2023-02-01T04:31:01;97998.53;;;2.37;82.29
72855;BME280;60991;51.278;22.550;2023-02-01T04:32:31;98003.25;;;2.47;82.40
72855;BME280;60991;51.278;22.550;2023-02-01T04:34:02;98010.75;;;2.43;81.90
72855;BME280;60991;51.278;22.550;2023-02-01T04:35:33;98009.44;;;2.53;81.96
72855;BME280;60991;51.278;22.550;2023-02-01T04:37:03;98004.47;;;2.63;81.72
72855;BME280;60991;51.278;22.550;2023-02-01T04:38:33;98004.03;;;2.66;81.83
72855;BME280;60991;51.278;22.550;2023-02-01T04:40:04;98006.44;;;2.67;81.33
72855;BME280;60991;51.278;22.550;2023-02-01T04:41:34;98013.84;;;2.70;81.17
72855;BME280;60991;51.278;22.550;2023-02-01T04:43:04;98013.53;;;2.78;81.09
72855;BME280;60991;51.278;22.550;2023-02-01T04:44:34;98021.06;;;2.75;80.52
72855;BME280;60991;51.278;22.550;2023-02-01T04:46:05;98013.94;;;2.64;81.45
72855;BME280;60991;51.278;22.550;2023-02-01T04:47:35;98013.94;;;2.64;81.39
72855;BME280;60991;51.278;22.550;2023-02-01T04:49:05;98018.72;;;2.67;81.46
72855;BME280;60991;51.278;22.550;2023-02-01T04:50:35;98016.13;;;2.67;81.18
72855;BME280;60991;51.278;22.550;2023-02-01T04:52:05;98020.19;;;2.63;81.61
72855;BME280;60991;51.278;22.550;2023-02-01T04:53:36;98014.47;;;2.54;81.70
72855;BME280;60991;51.278;22.550;2023-02-01T04:55:06;98014.97;;;2.44;82.14
72855;BME280;60991;51.278;22.550;2023-02-01T04:56:37;98019.63;;;2.42;81.97
72855;BME280;60991;51.278;22.550;2023-02-01T04:58:08;98022.00;;;2.44;82.19
72855;BME280;60991;51.278;22.550;2023-02-01T04:59:39;98030.81;;;2.50;82.05
72855;BME280;60991;51.278;22.550;2023-02-01T05:01:09;98027.41;;;2.49;81.78
72855;BME280;60991;51.278;22.550;2023-02-01T05:02:39;98025.75;;;2.55;81.66
72855;BME280;60991;51.278;22.550;2023-02-01T05:04:10;98027.56;;;2.54;81.10
72855;BME280;60991;51.278;22.550;2023-02-01T05:05:40;98029.06;;;2.62;81.65
72855;BME280;60991;51.278;22.550;2023-02-01T05:07:10;98034.59;;;2.72;81.22
72855;BME280;60991;51.278;22.550;2023-02-01T05:08:40;98037.81;;;2.74;80.54
72855;BME280;60991;51.278;22.550;2023-02-01T05:10:10;98030.44;;;2.64;80.51
72855;BME280;60991;51.278;22.550;2023-02-01T05:11:41;98045.25;;;2.59;80.60
72855;BME280;60991;51.278;22.550;2023-02-01T05:13:11;98034.19;;;2.57;80.75
72855;BME280;60991;51.278;22.550;2023-02-01T05:14:42;98046.47;;;2.56;80.41
72855;BME280;60991;51.278;22.550;2023-02-01T05:16:12;98041.81;;;2.58;80.71
72855;BME280;60991;51.278;22.550;2023-02-01T05:17:42;98042.97;;;2.62;80.25
72855;BME280;60991;51.278;22.550;2023-02-01T05:19:12;98047.56;;;2.67;80.56
72855;BME280;60991;51.278;22.550;2023-02-01T05:20:43;98035.19;;;2.56;80.47
72855;BME280;60991;51.278;22.550;2023-02-01T05:22:13;98047.88;;;2.59;80.96
72855;BME280;60991;51.278;22.550;2023-02-01T05:23:43;98048.19;;;2.62;80.44
72855;BME280;60991;51.278;22.550;2023-02-01T05:25:13;98049.47;;;2.60;80.12
72855;BME280;60991;51.278;22.550;2023-02-01T05:26:44;98043.16;;;2.79;79.30
72855;BME280;60991;51.278;22.550;2023-02-01T05:28:14;98037.81;;;2.56;80.56
72855;BME280;60991;51.278;22.550;2023-02-01T05:29:44;98051.63;;;2.63;80.25
72855;BME280;60991;51.278;22.550;2023-02-01T05:31:15;98039.84;;;2.54;80.62
72855;BME280;60991;51.278;22.550;2023-02-01T05:32:45;98045.25;;;2.59;81.11
72855;BME280;60991;51.278;22.550;2023-02-01T05:34:15;98051.50;;;2.58;80.43
72855;BME280;60991;51.278;22.550;2023-02-01T05:35:46;98051.94;;;2.73;79.94
72855;BME280;60991;51.278;22.550;2023-02-01T05:37:16;98045.59;;;2.62;80.20
72855;BME280;60991;51.278;22.550;2023-02-01T05:38:46;98046.25;;;2.58;80.70
72855;BME280;60991;51.278;22.550;2023-02-01T05:40:16;98049.09;;;2.56;80.56
72855;BME280;60991;51.278;22.550;2023-02-01T05:41:47;98041.28;;;2.68;80.18
72855;BME280;60991;51.278;22.550;2023-02-01T05:43:17;98040.66;;;2.72;79.99
72855;BME280;60991;51.278;22.550;2023-02-01T05:44:47;98045.31;;;2.70;79.71
72855;BME280;60991;51.278;22.550;2023-02-01T05:46:18;98048.19;;;2.62;79.93
72855;BME280;60991;51.278;22.550;2023-02-01T05:47:48;98049.75;;;2.70;80.32
72855;BME280;60991;51.278;22.550;2023-02-01T05:49:18;98057.44;;;2.65;79.87
72855;BME280;60991;51.278;22.550;2023-02-01T05:54:05;98051.94;;;2.73;80.05
72855;BME280;60991;51.278;22.550;2023-02-01T05:55:36;98062.25;;;2.68;79.12
72855;BME280;60991;51.278;22.550;2023-02-01T05:58:46;98064.88;;;2.68;79.49
72855;BME280;60991;51.278;22.550;2023-02-01T06:03:33;98064.44;;;2.71;79.29
72855;BME280;60991;51.278;22.550;2023-02-01T06:05:04;98063.06;;;2.68;79.10
72855;BME280;60991;51.278;22.550;2023-02-01T06:06:34;98066.63;;;2.74;79.72
72855;BME280;60991;51.278;22.550;2023-02-01T06:08:05;98063.84;;;2.69;78.97
72855;BME280;60991;51.278;22.550;2023-02-01T06:09:35;98058.63;;;2.69;79.38
72855;BME280;60991;51.278;22.550;2023-02-01T06:11:06;98070.13;;;2.68;80.03
72855;BME280;60991;51.278;22.550;2023-02-01T06:12:36;98058.84;;;2.67;79.79
72855;BME280;60991;51.278;22.550;2023-02-01T06:14:06;98069.69;;;2.71;78.86
72855;BME280;60991;51.278;22.550;2023-02-01T06:15:37;98070.34;;;2.66;78.97
72855;BME280;60991;51.278;22.550;2023-02-01T06:17:07;98065.69;;;2.68;79.46
72855;BME280;60991;51.278;22.550;2023-02-01T06:18:37;98068.22;;;2.75;79.31
72855;BME280;60991;51.278;22.550;2023-02-01T06:20:08;98070.41;;;2.78;78.97
72855;BME280;60991;51.278;22.550;2023-02-01T06:21:38;98067.66;;;2.73;78.80
72855;BME280;60991;51.278;22.550;2023-02-01T06:23:08;98058.03;;;2.85;78.15
72855;BME280;60991;51.278;22.550;2023-02-01T06:24:39;98065.25;;;2.71;78.99
72855;BME280;60991;51.278;22.550;2023-02-01T06:26:09;98068.88;;;2.70;78.72
72855;BME280;60991;51.278;22.550;2023-02-01T06:27:39;98071.72;;;2.69;79.48
72855;BME280;60991;51.278;22.550;2023-02-01T06:29:10;98070.03;;;2.74;78.72
72855;BME280;60991;51.278;22.550;2023-02-01T06:30:40;98067.47;;;2.86;78.59
72855;BME280;60991;51.278;22.550;2023-02-01T06:32:10;98079.13;;;2.90;78.39
72855;BME280;60991;51.278;22.550;2023-02-01T06:33:40;98069.94;;;2.81;78.41
72855;BME280;60991;51.278;22.550;2023-02-01T06:35:11;98073.59;;;2.80;78.89
72855;BME280;60991;51.278;22.550;2023-02-01T06:36:41;98074.09;;;2.89;78.46
72855;BME280;60991;51.278;22.550;2023-02-01T06:38:11;98081.09;;;2.95;78.56
72855;BME280;60991;51.278;22.550;2023-02-01T06:39:41;98082.69;;;2.96;77.45
72855;BME280;60991;51.278;22.550;2023-02-01T06:41:12;98079.19;;;2.84;78.46
72855;BME280;60991;51.278;22.550;2023-02-01T06:42:42;98088.22;;;2.88;78.00
72855;BME280;60991;51.278;22.550;2023-02-01T06:44:12;98094.34;;;2.82;78.52
72855;BME280;60991;51.278;22.550;2023-02-01T06:45:42;98086.34;;;2.76;77.97
72855;BME280;60991;51.278;22.550;2023-02-01T06:47:13;98082.72;;;2.77;78.65
72855;BME280;60991;51.278;22.550;2023-02-01T06:48:43;98087.97;;;2.77;78.75
72855;BME280;60991;51.278;22.550;2023-02-01T06:50:13;98074.50;;;2.74;78.35
72855;BME280;60991;51.278;22.550;2023-02-01T06:51:43;98077.53;;;2.89;78.10
72855;BME280;60991;51.278;22.550;2023-02-01T06:53:13;98077.09;;;2.92;77.53
72855;BME280;60991;51.278;22.550;2023-02-01T06:54:44;98093.31;;;3.01;77.27
72855;BME280;60991;51.278;22.550;2023-02-01T06:56:14;98085.38;;;2.89;77.27
72855;BME280;60991;51.278;22.550;2023-02-01T06:57:44;98076.72;;;2.89;77.58
72855;BME280;60991;51.278;22.550;2023-02-01T06:59:14;98084.22;;;2.85;77.97
72855;BME280;60991;51.278;22.550;2023-02-01T07:00:44;98082.03;;;2.82;77.78
72855;BME280;60991;51.278;22.550;2023-02-01T07:02:15;98076.16;;;2.87;77.84
72855;BME280;60991;51.278;22.550;2023-02-01T07:03:49;98082.03;;;2.82;78.05
72855;BME280;60991;51.278;22.550;2023-02-01T07:05:20;98065.28;;;2.83;78.03
72855;BME280;60991;51.278;22.550;2023-02-01T07:06:50;98071.69;;;2.87;77.60
72855;BME280;60991;51.278;22.550;2023-02-01T07:08:20;98071.69;;;2.87;78.13
72855;BME280;60991;51.278;22.550;2023-02-01T07:09:51;98076.16;;;2.87;77.99
72855;BME280;60991;51.278;22.550;2023-02-01T07:11:21;98069.66;;;2.89;77.49
72855;BME280;60991;51.278;22.550;2023-02-01T07:12:51;98082.34;;;2.92;77.79
72855;BME280;60991;51.278;22.550;2023-02-01T07:14:22;98072.22;;;2.96;77.83
72855;BME280;60991;51.278;22.550;2023-02-01T07:15:52;98076.19;;;2.98;77.54
72855;BME280;60991;51.278;22.550;2023-02-01T07:17:25;98076.56;;;3.02;78.02
72855;BME280;60991;51.278;22.550;2023-02-01T07:18:55;98077.09;;;2.92;77.68
72855;BME280;60991;51.278;22.550;2023-02-01T07:20:25;98076.28;;;2.92;77.58
72855;BME280;60991;51.278;22.550;2023-02-01T07:21:55;98072.88;;;2.91;77.21
72855;BME280;60991;51.278;22.550;2023-02-01T07:23:26;98074.53;;;3.04;76.98
72855;BME280;60991;51.278;22.550;2023-02-01T07:24:57;98071.91;;;3.04;77.49
72855;BME280;60991;51.278;22.550;2023-02-01T07:26:27;98071.81;;;3.10;76.41
72855;BME280;60991;51.278;22.550;2023-02-01T07:27:57;98075.31;;;3.04;76.42
72855;BME280;60991;51.278;22.550;2023-02-01T07:29:28;98071.19;;;2.97;76.74
72855;BME280;60991;51.278;22.550;2023-02-01T07:32:34;98072.88;;;2.91;77.01
72855;BME280;60991;51.278;22.550;2023-02-01T07:34:04;98069.94;;;2.99;77.00
72855;BME280;60991;51.278;22.550;2023-02-01T07:35:34;98069.81;;;2.94;76.94
72855;BME280;60991;51.278;22.550;2023-02-01T07:37:05;98071.28;;;2.90;77.14
72855;BME280;60991;51.278;22.550;2023-02-01T07:38:35;98073.03;;;2.96;76.70
72855;BME280;60991;51.278;22.550;2023-02-01T07:40:06;98068.25;;;3.05;76.80
72855;BME280;60991;51.278;22.550;2023-02-01T07:41:37;98072.25;;;3.07;75.92
72855;BME280;60991;51.278;22.550;2023-02-01T07:43:07;98068.03;;;3.06;75.91
72855;BME280;60991;51.278;22.550;2023-02-01T07:44:37;98061.06;;;3.00;76.51
72855;BME280;60991;51.278;22.550;2023-02-01T07:46:10;98063.34;;;2.97;76.31
72855;BME280;60991;51.278;22.550;2023-02-01T07:47:40;98067.53;;;2.98;76.56
72855;BME280;60991;51.278;22.550;2023-02-01T07:49:10;98072.03;;;3.09;76.91
72855;BME280;60991;51.278;22.550;2023-02-01T07:50:40;98064.41;;;3.07;76.40
72855;BME280;60991;51.278;22.550;2023-02-01T07:52:11;98070.00;;;3.11;76.57
72855;BME280;60991;51.278;22.550;2023-02-01T07:53:41;98076.28;;;3.10;76.48
72855;BME280;60991;51.278;22.550;2023-02-01T07:55:12;98080.13;;;3.07;76.40
72855;BME280;60991;51.278;22.550;2023-02-01T07:56:42;98067.50;;;3.16;75.85
72855;BME280;60991;51.278;22.550;2023-02-01T07:58:12;98072.44;;;3.24;75.82
72855;BME280;60991;51.278;22.550;2023-02-01T07:59:43;98060.50;;;3.28;75.48
72855;BME280;60991;51.278;22.550;2023-02-01T08:01:15;98067.41;;;3.23;75.50
72855;BME280;60991;51.278;22.550;2023-02-01T08:02:45;98069.03;;;3.24;75.74
72855;BME280;60991;51.278;22.550;2023-02-01T08:04:15;98064.72;;;3.29;75.60
72855;BME280;60991;51.278;22.550;2023-02-01T08:05:45;98065.53;;;3.41;75.38
72855;BME280;60991;51.278;22.550;2023-02-01T08:07:16;98062.41;;;3.51;74.43
72855;BME280;60991;51.278;22.550;2023-02-01T08:08:47;98062.69;;;3.43;75.02
72855;BME280;60991;51.278;22.550;2023-02-01T08:10:18;98065.31;;;3.43;74.60
72855;BME280;60991;51.278;22.550;2023-02-01T08:11:48;98062.41;;;3.51;73.92
72855;BME280;60991;51.278;22.550;2023-02-01T08:13:18;98066.63;;;3.52;74.44
72855;BME280;60991;51.278;22.550;2023-02-01T08:14:48;98067.72;;;3.44;74.76
72855;BME280;60991;51.278;22.550;2023-02-01T08:16:20;98058.00;;;3.33;74.39
72855;BME280;60991;51.278;22.550;2023-02-01T08:17:51;98067.13;;;3.31;75.34
72855;BME280;60991;51.278;22.550;2023-02-01T08:19:21;98063.91;;;3.29;74.87
72855;BME280;60991;51.278;22.550;2023-02-01T08:20:52;98068.34;;;3.28;75.46
72855;BME280;60991;51.278;22.550;2023-02-01T08:22:22;98063.25;;;3.33;75.73
72855;BME280;60991;51.278;22.550;2023-02-01T08:23:52;98063.84;;;3.47;75.68
72855;BME280;60991;51.278;22.550;2023-02-01T08:25:23;98075.16;;;3.47;74.43
72855;BME280;60991;51.278;22.550;2023-02-01T08:26:53;98066.94;;;3.44;74.58
72855;BME280;60991;51.278;22.550;2023-02-01T08:28:24;98070.50;;;3.50;74.82
72855;BME280;60991;51.278;22.550;2023-02-01T08:29:54;98061.59;;;3.51;74.89
72855;BME280;60991;51.278;22.550;2023-02-01T08:31:25;98065.75;;;3.70;74.09
72855;BME280;60991;51.278;22.550;2023-02-01T08:32:57;98067.75;;;3.56;73.64
72855;BME280;60991;51.278;22.550;2023-02-01T08:34:27;98069.78;;;3.54;73.45
72855;BME280;60991;51.278;22.550;2023-02-01T08:36:00;98058.63;;;3.47;74.05
72855;BME280;60991;51.278;22.550;2023-02-01T08:37:31;98069.00;;;3.54;74.34
72855;BME280;60991;51.278;22.550;2023-02-01T08:39:01;98064.66;;;3.47;73.77
72855;BME280;60991;51.278;22.550;2023-02-01T08:40:32;98065.91;;;3.45;73.87